Duluth, MN

12:03 PM CDT on July 28, 2016 (GMT -0500)
Chester Park WX | | Change Station
Active Advisory: Beach Hazard Statement

Elev 1040 ft 46.81 °N, 92.08 °W | Updated 3 minutes ago

Partly Cloudy
Partly Cloudy
69.9 °F
Feels Like 69.9 °F
N
3.0
Wind Variable Wind from ESE
Gusts 6.0 mph

Today
High -- | Low -- °F
--% Chance of Precip.
Yesterday
High -- | Low -- °F
Precip. -- in
Pressure 30.11 in
Visibility 10.0 miles
Clouds Few 7000 ft
Dew Point 58 °F
Humidity 67%
Rainfall 0.00 in
Snow Depth Not available.
5:44 AM 8:44 PM
Waning Crescent, 30% visible
METAR KDLH 281655Z 08010KT 10SM FEW070 22/12 A3011 RMK AO2 SLP196 T02220122
Pressure 30.11 in
Visibility 10.0 miles
Clouds Few 7000 ft
Dew Point 58 °F
Humidity 67%
Rainfall 0.00 in
Snow Depth Not available.
5:44 AM 8:44 PM
Waning Crescent, 30% visible
METAR KDLH 281655Z 08010KT 10SM FEW070 22/12 A3011 RMK AO2 SLP196 T02220122

10-Day Weather Forecast

Almanac

Astronomy

Jul. 28, 2016 Rise Set
Actual Time
Civil Twilight
Nautical Twilight
Astronomical Twilight
Moon
Length of Visible Light
Length of Day
Tomorrow will be .
, % of the Moon is Illuminated

Today's Extremes

State Highs State Lows

Community

WunderPhotos

Upload Photos

1,928,155 photos uploaded!

WunderBlog® & News

Nearby

Air Quality

  Air Quality AQ Index Pollutant
Not available.

Snow Depth

Station Depth Elevation

Earthquake Activity

City Distance Mag. Time & Date
Minimum magnitude displayed is 2.5.

Coastal Water Temperatures

Place Temperature

Stations

Nearby Weather Stations

Station Location Temp. Windchill Dew Point Humidity Wind Precip. Elev Updated Type
                   

Watches & Warnings

Beach Hazard Statement
Issued: 10:17 AM CDT Jul. 28, 2016 – National Weather Service

... Beach hazards statement in effect until 8 PM CDT this
evening...

The National Weather Service in Duluth has issued a beach hazards
statement for dangerous swimming conditions... which is in effect until
8 PM CDT this evening.

* Location... Park Point beach

* dangerous swimming conditions are expected along the Lake
Superior shoreline due to high wave action and strong rip
currents.

* High wave action alone can make swimming difficult on days
such as this. Incoming waves in rapid succession can tire a
swimmer quickly.

Precautionary/preparedness actions...

Rip currents are powerful channels of water flowing quickly away
from shore... which occur most often at low spots in sandbars...
near shoreline structures such as peninsulas or breakwalls... and
near river mouths.

For additional safety information and precautions... please visit
www.Weather.Gov/Duluth